Time;durP1;ratioP1;P1;durP2;ratioP2;P2;SDS_P1;SDS_P2;PMS_P1;PMS_P2;Temp;Humidity;BMP_temperature;BMP_pressure;BME280_temperature;BME280_humidity;BME280_pressure;Samples;Min_cycle;Max_cycle;Signal;HPM_P1;HPM_P2
2021/01/13 00:02:25;;;;;;;16.87;15.60;;;1.00;99.90;;;;;;6097451;23;20726;-76
2021/01/13 00:04:52;;;;;;;16.83;15.60;;;1.00;99.90;;;;;;6095882;23;20445;-77
2021/01/13 00:07:18;;;;;;;17.63;16.17;;;0.90;99.90;;;;;;6097490;23;20419;-76
2021/01/13 00:09:44;;;;;;;18.67;16.93;;;0.90;99.90;;;;;;6095351;23;20466;-76
2021/01/13 00:12:12;;;;;;;17.97;16.57;;;0.90;99.90;;;;;;6097232;23;20390;-77
2021/01/13 00:14:38;;;;;;;17.87;16.53;;;0.80;99.90;;;;;;6097148;23;20390;-76
2021/01/13 00:17:06;;;;;;;17.47;16.17;;;0.80;99.90;;;;;;6096829;23;20394;-77
2021/01/13 00:19:32;;;;;;;17.50;16.20;;;0.80;99.90;;;;;;6095267;23;20438;-76
2021/01/13 00:21:58;;;;;;;17.13;15.83;;;0.80;99.90;;;;;;6095704;23;20758;-77
2021/01/13 00:24:25;;;;;;;17.43;15.97;;;0.80;99.90;;;;;;6095616;23;20496;-77
2021/01/13 00:26:56;;;;;;;18.27;16.77;;;0.80;99.90;;;;;;6095779;23;20799;-77
2021/01/13 00:29:23;;;;;;;17.77;16.53;;;0.80;99.90;;;;;;6095125;23;20434;-76
2021/01/13 00:31:49;;;;;;;17.00;15.70;;;0.80;99.90;;;;;;6096077;23;20510;-76
2021/01/13 00:34:16;;;;;;;17.80;16.40;;;0.80;99.90;;;;;;6097047;23;20395;-76
2021/01/13 00:36:42;;;;;;;18.93;17.30;;;0.80;99.90;;;;;;6095759;23;20418;-77
2021/01/13 00:39:09;;;;;;;18.53;17.03;;;0.80;99.90;;;;;;6096956;23;20414;-76
2021/01/13 00:41:37;;;;;;;18.43;16.90;;;0.80;99.90;;;;;;6097026;23;20474;-76
2021/01/13 00:44:04;;;;;;;19.07;17.47;;;0.80;99.90;;;;;;6095149;23;20438;-76
2021/01/13 00:46:36;;;;;;;19.37;17.80;;;0.80;99.90;;;;;;6097311;23;20894;-76
2021/01/13 00:49:04;;;;;;;19.37;17.83;;;0.80;99.90;;;;;;6097113;23;20417;-77
2021/01/13 00:51:35;;;;;;;17.97;16.57;;;0.70;99.90;;;;;;6097175;23;20402;-77
2021/01/13 00:54:01;;;;;;;19.30;17.70;;;0.70;99.90;;;;;;6095002;23;20493;-76
2021/01/13 00:56:29;;;;;;;18.60;17.10;;;0.70;99.90;;;;;;6096740;23;20390;-77
2021/01/13 00:58:56;;;;;;;18.13;16.70;;;0.70;99.90;;;;;;6096627;23;20442;-76
2021/01/13 01:01:25;;;;;;;18.47;16.87;;;0.70;99.90;;;;;;6095371;23;20429;-76
2021/01/13 01:03:53;;;;;;;18.50;17.10;;;0.70;99.90;;;;;;6095220;23;20441;-76
2021/01/13 01:06:19;;;;;;;19.97;18.00;;;0.70;99.90;;;;;;6096562;23;20438;-76
2021/01/13 01:08:45;;;;;;;18.77;17.37;;;0.70;99.90;;;;;;6096351;23;20409;-77
2021/01/13 01:11:13;;;;;;;18.60;17.00;;;0.80;99.90;;;;;;6096827;23;20865;-76
2021/01/13 01:13:39;;;;;;;18.70;17.10;;;0.80;99.90;;;;;;6095253;23;20938;-76
2021/01/13 01:16:05;;;;;;;19.30;17.73;;;0.80;99.90;;;;;;6096874;23;20557;-76
2021/01/13 01:18:31;;;;;;;20.07;18.10;;;0.80;99.90;;;;;;6096366;23;20414;-76
2021/01/13 01:20:59;;;;;;;20.03;18.17;;;0.90;99.90;;;;;;6095453;23;20481;-77
2021/01/13 01:23:25;;;;;;;19.17;17.57;;;0.90;99.90;;;;;;6095185;23;20461;-76
2021/01/13 01:25:51;;;;;;;19.37;17.73;;;0.90;99.90;;;;;;6094987;23;20454;-76
2021/01/13 01:28:17;;;;;;;18.73;17.20;;;1.00;99.90;;;;;;6096286;23;20442;-76
2021/01/13 01:30:44;;;;;;;19.30;17.60;;;1.00;99.90;;;;;;6096745;23;20399;-76
2021/01/13 01:33:10;;;;;;;18.60;17.20;;;1.10;99.90;;;;;;6096720;23;20390;-77
2021/01/13 01:35:36;;;;;;;19.30;17.70;;;1.10;99.90;;;;;;6096726;23;20439;-76
2021/01/13 01:38:04;;;;;;;18.90;17.50;;;1.10;99.90;;;;;;6096567;23;20417;-76
2021/01/13 01:40:30;;;;;;;19.33;17.50;;;1.20;99.90;;;;;;6094935;23;20417;-76
2021/01/13 01:42:56;;;;;;;17.77;16.43;;;1.20;99.90;;;;;;6096857;23;20395;-76
2021/01/13 01:45:24;;;;;;;18.50;17.13;;;1.30;99.90;;;;;;6096228;23;20434;-77
2021/01/13 01:48:27;;;;;;;17.90;16.60;;;1.30;99.90;;;;;;6094782;23;20433;-76
2021/01/13 01:50:58;;;;;;;18.77;17.27;;;1.40;99.90;;;;;;6094531;23;20406;-76
2021/01/13 01:53:56;;;;;;;18.03;16.60;;;1.40;99.90;;;;;;6096346;23;20390;-77
2021/01/13 01:56:27;;;;;;;19.03;17.50;;;1.40;99.90;;;;;;6096770;23;20454;-77
2021/01/13 01:59:04;;;;;;;18.03;16.57;;;1.40;99.90;;;;;;6096365;23;20414;-77
2021/01/13 02:01:33;;;;;;;17.73;16.23;;;1.50;99.90;;;;;;6096615;23;20386;-77
2021/01/13 02:04:14;;;;;;;17.33;16.03;;;1.50;99.90;;;;;;6095263;23;20818;-76
2021/01/13 02:07:19;;;;;;;17.23;15.93;;;1.50;99.90;;;;;;6096494;23;20379;-76
2021/01/13 02:09:46;;;;;;;17.97;16.57;;;1.50;99.90;;;;;;6096232;23;20473;-76
2021/01/13 02:12:15;;;;;;;17.50;16.27;;;1.50;99.90;;;;;;6094949;23;20900;-77
2021/01/13 02:14:41;;;;;;;17.50;16.20;;;1.50;99.90;;;;;;6096255;23;20391;-77
2021/01/13 02:17:09;;;;;;;18.57;16.87;;;1.50;99.90;;;;;;6096102;23;20395;-77
2021/01/13 02:20:02;;;;;;;17.77;16.47;;;1.50;99.90;;;;;;6096194;23;20421;-76
2021/01/13 02:22:38;;;;;;;17.57;16.17;;;1.50;99.90;;;;;;6096492;23;20381;-76
2021/01/13 02:25:46;;;;;;;17.57;16.30;;;1.50;99.90;;;;;;6094749;23;20441;-76
2021/01/13 02:28:20;;;;;;;17.27;16.07;;;1.50;99.90;;;;;;6067260;23;20431;-75
2021/01/13 02:31:05;;;;;;;17.43;16.03;;;1.50;99.90;;;;;;6096345;23;20488;-76
2021/01/13 02:33:39;;;;;;;17.80;16.43;;;1.50;99.90;;;;;;6096170;23;20382;-76
2021/01/13 02:36:17;;;;;;;16.23;15.13;;;1.50;99.90;;;;;;6095118;23;20403;-76
2021/01/13 02:38:47;;;;;;;17.40;16.13;;;1.50;99.90;;;;;;6095623;23;20485;-77
2021/01/13 02:41:18;;;;;;;17.50;16.00;;;1.50;99.90;;;;;;6096142;23;20379;-76
2021/01/13 02:43:54;;;;;;;17.17;15.87;;;1.50;99.90;;;;;;6094594;23;20422;-76
2021/01/13 02:46:42;;;;;;;16.93;15.73;;;1.50;99.90;;;;;;6095937;23;20426;-76
2021/01/13 02:52:43;;;;;;;17.07;15.77;;;1.40;99.90;;;;;;6119206;23;20410;-76
2021/01/13 02:55:16;;;;;;;17.40;16.10;;;1.50;99.90;;;;;;6095992;23;20378;-76
2021/01/13 02:57:51;;;;;;;17.80;16.50;;;1.40;99.90;;;;;;6096272;23;20471;-76
2021/01/13 03:00:19;;;;;;;17.40;16.23;;;1.40;99.90;;;;;;6096232;23;20386;-76
2021/01/13 03:02:50;;;;;;;16.77;15.47;;;1.40;99.90;;;;;;6094721;23;20446;-77
2021/01/13 03:05:17;;;;;;;17.50;16.23;;;1.50;99.90;;;;;;6095944;23;20445;-77
2021/01/13 03:07:52;;;;;;;16.87;15.47;;;1.50;99.90;;;;;;6095881;23;20876;-77
2021/01/13 03:10:19;;;;;;;17.63;16.33;;;1.50;99.90;;;;;;6095793;23;20383;-76
2021/01/13 03:12:48;;;;;;;16.83;15.63;;;1.50;99.90;;;;;;6096009;23;20388;-76
2021/01/13 03:15:19;;;;;;;17.67;16.20;;;1.60;99.90;;;;;;6096456;23;20391;-76
2021/01/13 03:18:04;;;;;;;17.23;16.03;;;1.50;99.90;;;;;;6096651;23;20416;-76
2021/01/13 03:20:37;;;;;;;17.40;16.10;;;1.60;99.90;;;;;;6096254;23;20443;-77
2021/01/13 03:23:13;;;;;;;17.53;16.23;;;1.60;99.90;;;;;;6098214;23;20720;-76
2021/01/13 03:25:49;;;;;;;17.77;16.47;;;1.60;99.90;;;;;;6097685;23;20473;-76
2021/01/13 03:28:18;;;;;;;17.00;15.70;;;1.60;99.90;;;;;;6097322;23;20992;-76
2021/01/13 03:30:49;;;;;;;16.73;15.50;;;1.60;99.90;;;;;;6097763;23;20906;-76
2021/01/13 03:33:50;;;;;;;16.60;15.50;;;1.60;99.90;;;;;;6097632;23;20438;-76
2021/01/13 03:36:24;;;;;;;16.73;15.53;;;1.60;99.90;;;;;;6098317;23;20411;-77
2021/01/13 03:39:03;;;;;;;16.60;15.27;;;1.60;99.90;;;;;;6097769;23;20475;-76
2021/01/13 03:41:48;;;;;;;17.10;15.80;;;1.60;99.90;;;;;;6096664;23;20383;-76
2021/01/13 03:44:15;;;;;;;15.80;14.80;;;1.60;99.90;;;;;;6095073;23;20441;-76
2021/01/13 03:46:42;;;;;;;15.97;14.87;;;1.60;99.90;;;;;;6096543;23;20397;-76
2021/01/13 03:49:09;;;;;;;15.53;14.43;;;1.60;99.90;;;;;;6096137;23;20420;-76
2021/01/13 03:52:00;;;;;;;15.47;14.27;;;1.50;99.90;;;;;;6096407;23;20406;-76
2021/01/13 03:54:33;;;;;;;15.77;14.70;;;1.50;99.90;;;;;;6097565;23;20453;-78
2021/01/13 03:57:01;;;;;;;15.13;14.13;;;1.40;99.90;;;;;;6095741;23;20400;-76
2021/01/13 03:59:41;;;;;;;16.23;14.97;;;1.40;99.90;;;;;;6097362;23;20956;-78
2021/01/13 04:02:09;;;;;;;15.83;14.63;;;1.40;99.90;;;;;;6097492;23;20387;-77
2021/01/13 04:05:00;;;;;;;15.03;14.03;;;1.40;99.90;;;;;;6098377;23;20812;-78
2021/01/13 04:07:36;;;;;;;15.20;14.20;;;1.40;99.90;;;;;;6097296;23;20380;-76
2021/01/13 04:10:10;;;;;;;14.97;14.07;;;1.40;99.90;;;;;;6095284;23;20467;-76
2021/01/13 04:12:52;;;;;;;15.10;14.10;;;1.40;99.90;;;;;;6096059;23;20382;-76
2021/01/13 04:15:19;;;;;;;15.33;14.33;;;1.40;99.90;;;;;;6095782;23;20401;-77
2021/01/13 04:17:47;;;;;;;15.53;14.30;;;1.50;99.90;;;;;;6097415;23;20422;-77
2021/01/13 04:20:15;;;;;;;15.37;14.30;;;1.50;99.90;;;;;;6096842;23;20418;-76
2021/01/13 04:22:41;;;;;;;15.50;14.17;;;1.40;99.90;;;;;;6095937;23;20811;-76
2021/01/13 04:25:09;;;;;;;16.10;14.83;;;1.40;99.90;;;;;;6095388;23;20452;-76
2021/01/13 04:27:35;;;;;;;15.80;14.80;;;1.40;99.90;;;;;;6095266;23;20416;-76
2021/01/13 04:30:03;;;;;;;15.87;14.80;;;1.40;99.90;;;;;;6094810;23;20425;-76
2021/01/13 04:32:29;;;;;;;16.10;14.90;;;1.40;99.90;;;;;;6097194;23;20719;-76
2021/01/13 04:34:57;;;;;;;15.97;14.87;;;1.40;99.90;;;;;;6097210;23;20395;-76
2021/01/13 04:37:27;;;;;;;15.63;14.63;;;1.40;99.90;;;;;;6095365;23;20801;-76
2021/01/13 04:39:53;;;;;;;15.77;14.73;;;1.40;99.90;;;;;;6095198;23;20422;-76
2021/01/13 04:42:30;;;;;;;15.90;14.73;;;1.40;99.90;;;;;;6097093;23;20393;-76
2021/01/13 04:45:08;;;;;;;15.67;14.53;;;1.40;99.90;;;;;;6095428;23;20484;-76
2021/01/13 04:47:48;;;;;;;14.70;13.80;;;1.40;99.90;;;;;;6096461;23;20736;-76
2021/01/13 04:50:18;;;;;;;15.50;14.50;;;1.50;99.90;;;;;;6096796;23;20413;-76
2021/01/13 04:52:46;;;;;;;15.60;14.60;;;1.50;99.90;;;;;;6096313;23;20507;-76
2021/01/13 04:55:23;;;;;;;15.40;14.40;;;1.50;99.90;;;;;;6095275;23;20411;-77
2021/01/13 04:58:30;;;;;;;15.23;14.17;;;1.50;99.90;;;;;;6096699;23;20505;-76
2021/01/13 05:01:32;;;;;;;16.37;14.90;;;1.50;99.90;;;;;;6095118;23;20426;-76
2021/01/13 05:04:01;;;;;;;14.57;13.67;;;1.50;99.90;;;;;;6096437;23;20398;-76
2021/01/13 05:06:48;;;;;;;15.13;14.13;;;1.50;99.90;;;;;;6096427;23;20431;-76
2021/01/13 05:09:16;;;;;;;15.70;14.60;;;1.50;99.90;;;;;;6094900;23;20441;-76
2021/01/13 05:11:44;;;;;;;16.27;14.80;;;1.50;99.90;;;;;;6096634;23;20389;-77
2021/01/13 05:14:11;;;;;;;15.40;14.40;;;1.50;99.90;;;;;;6096536;23;20390;-76
2021/01/13 05:17:02;;;;;;;15.03;14.07;;;1.50;99.90;;;;;;6096481;23;20391;-76
2021/01/13 05:20:27;;;;;;;15.60;14.40;;;1.50;99.90;;;;;;6094782;23;20787;-76
2021/01/13 05:22:56;;;;;;;15.60;14.50;;;1.50;99.90;;;;;;6119356;23;20446;-76
2021/01/13 05:25:46;;;;;;;15.70;14.60;;;1.40;99.90;;;;;;6095140;23;20445;-76
2021/01/13 05:28:16;;;;;;;15.37;14.27;;;1.50;99.90;;;;;;6094941;23;20481;-76
2021/01/13 05:30:43;;;;;;;14.70;13.80;;;1.40;99.90;;;;;;6096607;23;20398;-76
2021/01/13 05:33:17;;;;;;;15.70;14.50;;;1.50;99.90;;;;;;6096236;23;20398;-76
2021/01/13 05:35:46;;;;;;;15.57;14.37;;;1.50;99.90;;;;;;6095076;23;20406;-76
2021/01/13 05:38:19;;;;;;;15.03;14.03;;;1.50;99.90;;;;;;6095974;23;20414;-76
2021/01/13 05:40:48;;;;;;;15.10;14.10;;;1.40;99.90;;;;;;6094848;23;20422;-76
2021/01/13 05:43:16;;;;;;;15.80;14.80;;;1.40;99.90;;;;;;6096477;23;20450;-77
2021/01/13 05:45:43;;;;;;;15.63;14.63;;;1.40;99.90;;;;;;6096128;23;20437;-76
2021/01/13 05:48:18;;;;;;;15.93;14.77;;;1.40;99.90;;;;;;6094412;23;20442;-76
2021/01/13 05:50:45;;;;;;;16.50;15.40;;;1.40;99.90;;;;;;6096050;23;20382;-76
2021/01/13 05:53:12;;;;;;;16.63;15.50;;;1.40;99.90;;;;;;6096248;23;20388;-76
2021/01/13 05:55:47;;;;;;;16.77;15.67;;;1.40;99.90;;;;;;6094620;23;20422;-76
2021/01/13 05:58:14;;;;;;;16.57;15.30;;;1.40;99.90;;;;;;6095624;23;20410;-76
2021/01/13 06:00:41;;;;;;;17.03;15.73;;;1.40;99.90;;;;;;6094128;23;20416;-77
2021/01/13 06:03:11;;;;;;;17.47;16.10;;;1.30;99.90;;;;;;6096134;23;20397;-76
2021/01/13 06:05:49;;;;;;;16.23;15.03;;;1.30;99.90;;;;;;6095976;23;20441;-76
2021/01/13 06:08:16;;;;;;;15.93;14.77;;;1.30;99.90;;;;;;6094061;23;20979;-76
2021/01/13 06:10:43;;;;;;;15.80;14.70;;;1.30;99.90;;;;;;6094326;23;20422;-76
2021/01/13 06:13:16;;;;;;;15.97;14.80;;;1.30;99.90;;;;;;6095792;23;20398;-76
2021/01/13 06:15:45;;;;;;;15.30;14.30;;;1.20;99.90;;;;;;6096411;23;20854;-76
2021/01/13 06:18:20;;;;;;;16.40;15.10;;;1.20;99.90;;;;;;6095893;23;20546;-77
2021/01/13 06:20:46;;;;;;;15.83;14.83;;;1.20;99.90;;;;;;6096317;23;20389;-76
2021/01/13 06:23:15;;;;;;;16.27;15.07;;;1.20;99.90;;;;;;6096133;23;20398;-76
2021/01/13 06:25:42;;;;;;;15.50;14.50;;;1.20;99.90;;;;;;6096134;23;20430;-77
2021/01/13 06:28:33;;;;;;;16.53;15.30;;;1.20;99.90;;;;;;6095759;23;20410;-76
2021/01/13 06:31:06;;;;;;;15.80;14.70;;;1.20;99.90;;;;;;6095955;23;20483;-76
2021/01/13 06:33:50;;;;;;;15.97;14.90;;;1.30;99.90;;;;;;6095804;23;20386;-76
2021/01/13 06:36:37;;;;;;;17.40;16.00;;;1.30;99.90;;;;;;6096042;23;20374;-76
2021/01/13 06:39:06;;;;;;;17.03;15.80;;;1.30;99.90;;;;;;6095615;23;20450;-76
2021/01/13 06:41:44;;;;;;;16.70;15.60;;;1.40;99.90;;;;;;6095946;23;20391;-76
2021/01/13 06:44:11;;;;;;;17.30;16.10;;;1.30;99.90;;;;;;6096568;23;20384;-76
2021/01/13 06:46:38;;;;;;;17.37;16.07;;;1.40;99.90;;;;;;6094347;23;20734;-76
2021/01/13 06:49:17;;;;;;;17.17;15.87;;;1.40;99.90;;;;;;6095584;23;20422;-77
2021/01/13 06:51:45;;;;;;;16.00;14.90;;;1.40;99.90;;;;;;6094293;23;20429;-76
2021/01/13 06:54:13;;;;;;;16.50;15.30;;;1.50;99.90;;;;;;6097485;23;20449;-75
2021/01/13 06:56:50;;;;;;;18.00;16.20;;;1.50;99.90;;;;;;6097188;23;20392;-75
2021/01/13 06:59:18;;;;;;;16.10;15.00;;;1.50;99.90;;;;;;6094981;23;20443;-75
2021/01/13 07:01:52;;;;;;;17.27;16.07;;;1.50;99.90;;;;;;6098026;23;20394;-76
2021/01/13 07:04:19;;;;;;;17.60;16.20;;;1.50;99.90;;;;;;6098097;23;20731;-77
2021/01/13 07:06:59;;;;;;;17.23;16.03;;;1.40;99.90;;;;;;6096622;23;20903;-76
2021/01/13 07:09:32;;;;;;;16.67;15.50;;;1.40;99.90;;;;;;6097767;23;20531;-76
2021/01/13 07:12:06;;;;;;;17.23;15.93;;;1.30;99.90;;;;;;6097317;23;20469;-77
2021/01/13 07:14:35;;;;;;;17.93;16.57;;;1.30;99.90;;;;;;6097458;23;20379;-76
2021/01/13 07:17:04;;;;;;;17.17;15.87;;;1.20;99.90;;;;;;6097674;23;20390;-75
2021/01/13 07:19:32;;;;;;;17.60;16.30;;;1.20;99.90;;;;;;6096757;23;20883;-75
2021/01/13 07:21:58;;;;;;;17.90;16.60;;;1.20;99.90;;;;;;6097221;23;20390;-75
2021/01/13 07:24:28;;;;;;;18.57;17.27;;;1.20;99.90;;;;;;6095877;23;20429;-75
2021/01/13 07:26:56;;;;;;;16.67;15.47;;;1.20;99.90;;;;;;6096688;23;20391;-75
2021/01/13 07:29:25;;;;;;;17.13;15.93;;;1.20;99.90;;;;;;6096559;23;20418;-75
2021/01/13 07:31:54;;;;;;;18.07;16.40;;;1.20;99.90;;;;;;6096831;23;20388;-75
2021/01/13 07:34:29;;;;;;;18.23;16.73;;;1.30;99.90;;;;;;6096916;23;20893;-75
2021/01/13 07:37:00;;;;;;;17.87;16.47;;;1.30;99.90;;;;;;6097176;23;20379;-75
2021/01/13 07:40:02;;;;;;;17.67;16.40;;;1.30;99.90;;;;;;6095606;23;20414;-75
2021/01/13 07:42:36;;;;;;;17.87;16.50;;;1.30;99.90;;;;;;6096505;23;20378;-75
2021/01/13 07:45:07;;;;;;;17.60;16.20;;;1.30;99.90;;;;;;6095050;23;20444;-74
2021/01/13 07:48:06;;;;;;;18.43;17.00;;;1.30;99.90;;;;;;6096394;23;20390;-75
2021/01/13 07:50:39;;;;;;;18.30;17.00;;;1.40;99.90;;;;;;6095534;23;20909;-75
2021/01/13 07:53:10;;;;;;;18.10;16.63;;;1.40;99.90;;;;;;6096520;23;20404;-75
2021/01/13 07:55:42;;;;;;;18.00;16.57;;;1.40;99.90;;;;;;6096530;23;20869;-75
2021/01/13 07:58:19;;;;;;;17.90;16.50;;;1.50;99.90;;;;;;6094682;23;20854;-75
2021/01/13 08:01:13;;;;;;;17.00;15.70;;;1.50;99.90;;;;;;6096512;23;20379;-75
2021/01/13 08:04:18;;;;;;;17.07;15.77;;;1.60;99.90;;;;;;6063919;23;20403;-75
2021/01/13 08:06:49;;;;;;;17.37;16.03;;;1.60;99.90;;;;;;6095035;23;20413;-76
2021/01/13 08:09:18;;;;;;;17.23;15.83;;;1.70;99.90;;;;;;6094559;23;20434;-76
2021/01/13 08:12:17;;;;;;;17.00;15.70;;;1.70;99.90;;;;;;6095613;23;20452;-74
2021/01/13 08:15:29;;;;;;;16.70;15.50;;;1.80;99.90;;;;;;6095369;23;20398;-74
2021/01/13 08:18:49;;;;;;;16.93;15.70;;;1.90;99.90;;;;;;6096198;23;20467;-75
2021/01/13 08:21:24;;;;;;;16.07;14.87;;;2.00;99.90;;;;;;6096373;23;20720;-74
2021/01/13 08:23:56;;;;;;;15.27;14.10;;;2.00;99.90;;;;;;6096263;23;20462;-74
2021/01/13 08:26:23;;;;;;;16.37;15.07;;;2.10;99.90;;;;;;6096110;23;20725;-74
2021/01/13 08:28:52;;;;;;;15.37;14.17;;;2.10;99.90;;;;;;6096005;23;20421;-74
2021/01/13 08:31:22;;;;;;;15.17;13.97;;;2.10;99.90;;;;;;6096260;23;20790;-74
2021/01/13 08:33:50;;;;;;;14.77;13.67;;;2.20;99.90;;;;;;6096088;23;20417;-74
2021/01/13 08:36:17;;;;;;;15.63;14.43;;;2.20;99.90;;;;;;6094313;23;20506;-75
2021/01/13 08:39:13;;;;;;;15.47;13.93;;;2.40;99.90;;;;;;6095588;23;20423;-76
2021/01/13 08:41:41;;;;;;;16.73;15.10;;;2.40;99.90;;;;;;6119696;23;20418;-76
2021/01/13 08:44:10;;;;;;;15.20;13.73;;;2.40;99.90;;;;;;6093763;23;20414;-75
2021/01/13 08:46:46;;;;;;;15.67;14.40;;;2.40;99.90;;;;;;6096238;23;20391;-76
2021/01/13 08:49:21;;;;;;;15.00;13.80;;;2.50;99.90;;;;;;6095166;23;20419;-76
2021/01/13 08:52:14;;;;;;;15.70;14.40;;;2.50;99.90;;;;;;6094237;23;20476;-76
2021/01/13 08:54:42;;;;;;;14.30;13.30;;;2.50;99.90;;;;;;6095925;23;20853;-77
2021/01/13 08:57:10;;;;;;;15.13;14.03;;;2.60;99.90;;;;;;6096292;23;20393;-77
2021/01/13 08:59:41;;;;;;;14.60;13.37;;;2.60;99.90;;;;;;6095438;23;20426;-77
2021/01/13 09:02:11;;;;;;;14.63;13.70;;;2.60;99.90;;;;;;6099094;23;20964;-78
2021/01/13 09:04:56;;;;;;;14.30;13.23;;;2.60;99.90;;;;;;6098099;23;20509;-78
2021/01/13 09:07:24;;;;;;;15.10;13.90;;;2.70;99.90;;;;;;6098695;23;20379;-78
2021/01/13 09:10:00;;;;;;;14.23;13.13;;;2.70;99.90;;;;;;6097714;23;20420;-76
2021/01/13 09:12:36;;;;;;;14.93;13.83;;;2.70;99.90;;;;;;6096724;23;20397;-78
2021/01/13 09:15:18;;;;;;;14.40;13.30;;;2.70;99.90;;;;;;6094655;23;20975;-76
2021/01/13 09:17:51;;;;;;;15.47;14.17;;;2.70;99.90;;;;;;6096037;23;20949;-76
2021/01/13 09:20:24;;;;;;;14.50;13.50;;;2.70;99.90;;;;;;6095319;23;20382;-76
2021/01/13 09:22:53;;;;;;;15.30;14.03;;;2.70;99.90;;;;;;6096659;23;20426;-76
2021/01/13 09:25:22;;;;;;;14.10;13.10;;;2.80;99.90;;;;;;6095230;23;20448;-76
2021/01/13 09:27:51;;;;;;;14.17;13.00;;;2.80;99.90;;;;;;6094819;23;20470;-76
2021/01/13 09:30:28;;;;;;;13.17;12.20;;;2.90;99.90;;;;;;6096111;23;20394;-76
2021/01/13 09:32:57;;;;;;;14.83;13.73;;;3.00;99.90;;;;;;6119428;23;20404;-76
2021/01/13 09:35:24;;;;;;;14.30;13.27;;;3.20;99.90;;;;;;6096364;23;20390;-76
2021/01/13 09:37:53;;;;;;;14.63;13.50;;;3.30;99.90;;;;;;6094791;23;20444;-76
2021/01/13 09:40:21;;;;;;;14.40;13.40;;;3.30;99.90;;;;;;6096123;23;20767;-76
2021/01/13 09:42:56;;;;;;;14.73;13.43;;;3.50;99.90;;;;;;6096148;23;20923;-76
2021/01/13 09:45:24;;;;;;;14.40;13.33;;;3.50;99.90;;;;;;6095944;23;20422;-76
2021/01/13 09:47:51;;;;;;;14.63;13.60;;;3.60;99.90;;;;;;6093975;23;20433;-76
2021/01/13 09:50:21;;;;;;;14.00;13.10;;;3.50;99.90;;;;;;6095942;23;20453;-76
2021/01/13 09:52:48;;;;;;;13.47;12.53;;;3.50;99.90;;;;;;6096145;23;20484;-76
2021/01/13 09:55:16;;;;;;;13.63;12.60;;;3.50;99.90;;;;;;6096344;23;20453;-76
2021/01/13 09:57:43;;;;;;;14.43;12.90;;;3.50;99.90;;;;;;6094116;23;20529;-76
2021/01/13 10:00:12;;;;;;;14.37;13.37;;;3.50;99.90;;;;;;6095223;23;20421;-76
2021/01/13 10:02:43;;;;;;;14.20;13.10;;;3.50;99.90;;;;;;6093995;23;20823;-76
2021/01/13 10:05:10;;;;;;;14.23;13.27;;;3.40;99.90;;;;;;6093261;23;20948;-76
2021/01/13 10:07:37;;;;;;;14.70;13.67;;;3.40;99.90;;;;;;6093879;23;20421;-76
2021/01/13 10:10:07;;;;;;;14.00;12.90;;;3.40;99.90;;;;;;6093740;23;20453;-76
2021/01/13 10:12:39;;;;;;;13.60;12.50;;;3.30;99.90;;;;;;6093503;23;20449;-76
2021/01/13 10:15:09;;;;;;;15.53;14.23;;;3.40;99.90;;;;;;6095295;23;20915;-76
2021/01/13 10:17:37;;;;;;;14.87;13.67;;;3.40;99.90;;;;;;6095419;23;20397;-76
2021/01/13 10:20:16;;;;;;;14.87;13.70;;;3.40;99.90;;;;;;6066546;23;20532;-76
2021/01/13 10:22:44;;;;;;;14.27;13.10;;;3.50;99.90;;;;;;6065450;23;20418;-76
2021/01/13 10:25:11;;;;;;;15.57;14.30;;;3.50;99.90;;;;;;6066597;23;20438;-76
2021/01/13 10:27:42;;;;;;;14.40;13.47;;;3.60;99.90;;;;;;6066670;23;20733;-76
2021/01/13 10:30:11;;;;;;;14.80;13.53;;;3.70;99.90;;;;;;6066208;23;20402;-76
2021/01/13 10:32:46;;;;;;;14.73;13.40;;;3.80;99.90;;;;;;6065072;23;20418;-76
2021/01/13 10:35:14;;;;;;;14.90;13.80;;;4.00;99.90;;;;;;6066410;23;20375;-76
2021/01/13 10:37:42;;;;;;;14.67;13.70;;;4.00;99.90;;;;;;6064536;23;20449;-76
2021/01/13 10:40:09;;;;;;;15.27;14.00;;;4.10;99.90;;;;;;6066559;23;20862;-76
2021/01/13 10:42:40;;;;;;;14.10;13.07;;;4.30;99.90;;;;;;6065569;23;20414;-76
2021/01/13 10:45:13;;;;;;;14.27;13.37;;;4.40;99.90;;;;;;6066632;23;20449;-76
2021/01/13 10:47:53;;;;;;;14.67;13.67;;;4.40;99.90;;;;;;6065398;23;20458;-76
2021/01/13 10:50:21;;;;;;;14.33;13.20;;;4.50;99.90;;;;;;6066632;23;20385;-76
2021/01/13 10:52:53;;;;;;;14.50;13.33;;;4.60;99.90;;;;;;6066842;23;20406;-76
2021/01/13 10:55:20;;;;;;;14.20;13.20;;;4.50;99.90;;;;;;6066842;23;20387;-76
2021/01/13 10:57:50;;;;;;;13.70;12.80;;;4.50;99.90;;;;;;6065307;23;20442;-77
2021/01/13 11:00:18;;;;;;;14.13;13.23;;;4.50;99.90;;;;;;6064849;23;20178;-76
2021/01/13 11:02:52;;;;;;;13.13;12.30;;;4.50;99.90;;;;;;6066777;23;20171;-76
2021/01/13 11:05:19;;;;;;;15.13;13.93;;;4.60;99.90;;;;;;6066479;23;20274;-76
2021/01/13 11:07:47;;;;;;;13.63;12.60;;;4.60;99.90;;;;;;6066755;23;20191;-76
2021/01/13 11:10:15;;;;;;;13.83;12.73;;;4.70;99.90;;;;;;6066591;23;20170;-76
2021/01/13 11:12:41;;;;;;;13.70;12.80;;;4.70;99.90;;;;;;6068374;23;20732;-76
2021/01/13 11:15:09;;;;;;;13.20;12.30;;;4.80;99.90;;;;;;6065452;23;20419;-76
2021/01/13 11:17:37;;;;;;;13.90;13.00;;;4.80;99.90;;;;;;6066241;23;20875;-76
2021/01/13 11:20:06;;;;;;;13.67;12.87;;;5.00;99.90;;;;;;6067013;23;20714;-77
2021/01/13 11:22:44;;;;;;;13.93;12.80;;;5.00;99.90;;;;;;6067266;23;20171;-77
2021/01/13 11:25:19;;;;;;;13.77;12.77;;;5.00;99.90;;;;;;6065498;23;20221;-77
2021/01/13 11:27:53;;;;;;;13.50;12.60;;;5.10;99.90;;;;;;6065496;23;20800;-76
2021/01/13 11:30:20;;;;;;;13.70;12.70;;;5.20;99.90;;;;;;6065622;23;20175;-76
2021/01/13 11:32:51;;;;;;;13.13;12.33;;;5.20;99.90;;;;;;6067119;23;20178;-76
2021/01/13 11:35:29;;;;;;;13.50;12.40;;;5.30;99.90;;;;;;6066614;23;20156;-76
2021/01/13 11:38:43;;;;;;;12.67;11.83;;;5.20;99.90;;;;;;6065981;23;20198;-76
2021/01/13 11:41:35;;;;;;;13.20;12.30;;;5.20;99.90;;;;;;6066980;23;20500;-76
2021/01/13 11:44:23;;;;;;;13.30;12.40;;;5.00;99.90;;;;;;6068121;23;20182;-76
2021/01/13 11:46:59;;;;;;;12.50;11.70;;;5.00;99.90;;;;;;6066781;23;20210;-77
2021/01/13 11:49:42;;;;;;;12.83;12.03;;;4.90;99.90;;;;;;6068199;23;20251;-76
2021/01/13 11:52:09;;;;;;;13.20;12.40;;;4.90;99.90;;;;;;6068595;23;20178;-76
2021/01/13 11:54:36;;;;;;;13.63;12.67;;;5.00;99.90;;;;;;6067402;23;20229;-76
2021/01/13 11:57:26;;;;;;;12.77;11.90;;;5.00;99.90;;;;;;6067809;23;20167;-76
2021/01/13 11:59:53;;;;;;;12.83;11.93;;;5.10;99.90;;;;;;6067254;23;20265;-76
2021/01/13 12:02:22;;;;;;;12.80;12.00;;;5.10;99.90;;;;;;6069301;23;20194;-77
2021/01/13 12:04:50;;;;;;;12.73;11.93;;;5.20;99.90;;;;;;6068895;23;20171;-76
2021/01/13 12:07:16;;;;;;;12.80;11.57;;;5.20;99.90;;;;;;6068450;23;20175;-77
2021/01/13 12:09:43;;;;;;;12.63;11.80;;;5.20;99.90;;;;;;6066625;23;20210;-77
2021/01/13 12:12:25;;;;;;;12.10;11.30;;;5.10;99.90;;;;;;6066973;23;20189;-76
2021/01/13 12:14:51;;;;;;;12.07;11.27;;;5.10;99.90;;;;;;6068453;23;20163;-76
2021/01/13 12:17:20;;;;;;;12.27;11.47;;;5.10;99.90;;;;;;6068692;23;20167;-76
2021/01/13 12:19:46;;;;;;;11.77;11.07;;;5.10;99.90;;;;;;6068323;23;20182;-77
2021/01/13 12:22:13;;;;;;;12.17;11.27;;;5.00;99.90;;;;;;6069215;23;20570;-76
2021/01/13 12:24:42;;;;;;;12.10;11.40;;;5.00;99.90;;;;;;6068962;23;20175;-76
2021/01/13 12:27:24;;;;;;;12.03;11.13;;;5.00;99.90;;;;;;6068918;23;20390;-77
2021/01/13 12:30:10;;;;;;;12.20;11.30;;;4.90;99.90;;;;;;6066913;23;20506;-77
2021/01/13 12:32:38;;;;;;;12.63;11.67;;;5.00;99.90;;;;;;6068323;23;20625;-77
2021/01/13 12:35:05;;;;;;;12.83;11.90;;;4.90;99.90;;;;;;6068503;23;20567;-77
2021/01/13 12:37:45;;;;;;;12.73;11.83;;;4.90;99.90;;;;;;6066861;23;20450;-77
2021/01/13 12:40:12;;;;;;;12.50;11.60;;;4.90;99.90;;;;;;6068537;23;20162;-76
2021/01/13 12:42:38;;;;;;;11.57;10.93;;;4.80;99.90;;;;;;6068849;23;20166;-76
2021/01/13 12:45:06;;;;;;;12.10;11.40;;;4.80;99.90;;;;;;6068515;23;20645;-77
2021/01/13 12:47:33;;;;;;;12.27;11.57;;;4.80;99.90;;;;;;6068299;23;20403;-76
2021/01/13 12:49:59;;;;;;;12.50;11.60;;;4.70;99.90;;;;;;6068099;23;20395;-76
2021/01/13 12:52:25;;;;;;;11.63;10.93;;;4.80;99.90;;;;;;6068145;23;20198;-77
2021/01/13 12:54:52;;;;;;;12.20;11.40;;;4.80;99.90;;;;;;6068354;23;20399;-76
2021/01/13 12:57:19;;;;;;;12.00;11.20;;;4.70;99.90;;;;;;6091190;23;20415;-76
2021/01/13 12:59:45;;;;;;;11.47;10.77;;;4.70;99.90;;;;;;6068190;23;20191;-77
2021/01/13 13:02:11;;;;;;;11.73;10.93;;;4.70;99.90;;;;;;6068559;23;20395;-77
2021/01/13 13:04:37;;;;;;;11.50;10.70;;;4.80;99.90;;;;;;6069063;23;20171;-77
2021/01/13 13:07:04;;;;;;;12.17;11.23;;;4.70;99.90;;;;;;6068489;23;20170;-77
2021/01/13 13:09:30;;;;;;;12.10;11.40;;;4.80;99.90;;;;;;6068267;23;20201;-76